sensor_id;sensor_type;location;lat;lon;timestamp;P1;durP1;ratioP1;P2;durP2;ratioP2
75218;SDS011;63801;49.414;19.474;2023-03-01T00:01:01;57.72;;;23.48;;
75218;SDS011;63801;49.414;19.474;2023-03-01T00:03:03;59.75;;;22.98;;
75218;SDS011;63801;49.414;19.474;2023-03-01T00:05:04;52.83;;;21.10;;
75218;SDS011;63801;49.414;19.474;2023-03-01T00:07:05;52.55;;;20.67;;
75218;SDS011;63801;49.414;19.474;2023-03-01T00:09:05;47.15;;;19.45;;
75218;SDS011;63801;49.414;19.474;2023-03-01T00:13:14;48.67;;;20.48;;
75218;SDS011;63801;49.414;19.474;2023-03-01T00:15:14;57.67;;;22.65;;
75218;SDS011;63801;49.414;19.474;2023-03-01T00:17:14;66.47;;;24.95;;
75218;SDS011;63801;49.414;19.474;2023-03-01T00:19:16;77.80;;;29.20;;
75218;SDS011;63801;49.414;19.474;2023-03-01T00:21:18;103.07;;;37.92;;
75218;SDS011;63801;49.414;19.474;2023-03-01T00:23:20;125.22;;;45.33;;
75218;SDS011;63801;49.414;19.474;2023-03-01T00:25:21;116.85;;;44.90;;
75218;SDS011;63801;49.414;19.474;2023-03-01T00:27:21;122.85;;;43.72;;
75218;SDS011;63801;49.414;19.474;2023-03-01T00:29:23;132.38;;;46.10;;
75218;SDS011;63801;49.414;19.474;2023-03-01T00:31:25;117.47;;;43.00;;
75218;SDS011;63801;49.414;19.474;2023-03-01T00:33:27;107.22;;;39.38;;
75218;SDS011;63801;49.414;19.474;2023-03-01T00:35:27;98.45;;;39.63;;
75218;SDS011;63801;49.414;19.474;2023-03-01T00:37:28;119.75;;;43.78;;
75218;SDS011;63801;49.414;19.474;2023-03-01T00:39:28;117.53;;;44.55;;
75218;SDS011;63801;49.414;19.474;2023-03-01T00:41:28;116.28;;;44.10;;
75218;SDS011;63801;49.414;19.474;2023-03-01T00:43:29;112.78;;;42.38;;
75218;SDS011;63801;49.414;19.474;2023-03-01T00:45:29;117.47;;;42.25;;
75218;SDS011;63801;49.414;19.474;2023-03-01T00:47:31;125.85;;;43.05;;
75218;SDS011;63801;49.414;19.474;2023-03-01T00:49:31;98.68;;;37.80;;
75218;SDS011;63801;49.414;19.474;2023-03-01T00:51:31;105.75;;;41.88;;
75218;SDS011;63801;49.414;19.474;2023-03-01T00:53:32;95.97;;;37.55;;
75218;SDS011;63801;49.414;19.474;2023-03-01T00:55:33;96.93;;;37.83;;
75218;SDS011;63801;49.414;19.474;2023-03-01T00:57:33;86.32;;;34.35;;
75218;SDS011;63801;49.414;19.474;2023-03-01T00:59:34;97.78;;;36.50;;
75218;SDS011;63801;49.414;19.474;2023-03-01T01:01:34;95.00;;;36.38;;
75218;SDS011;63801;49.414;19.474;2023-03-01T01:03:35;83.00;;;33.85;;
75218;SDS011;63801;49.414;19.474;2023-03-01T01:05:35;71.07;;;28.13;;
75218;SDS011;63801;49.414;19.474;2023-03-01T01:07:36;75.47;;;28.58;;
75218;SDS011;63801;49.414;19.474;2023-03-01T01:09:36;80.43;;;31.90;;
75218;SDS011;63801;49.414;19.474;2023-03-01T01:11:37;90.32;;;34.92;;
75218;SDS011;63801;49.414;19.474;2023-03-01T01:13:38;107.57;;;38.22;;
75218;SDS011;63801;49.414;19.474;2023-03-01T01:15:39;92.60;;;37.53;;
75218;SDS011;63801;49.414;19.474;2023-03-01T01:17:40;94.28;;;34.05;;
75218;SDS011;63801;49.414;19.474;2023-03-01T01:19:40;112.57;;;37.70;;
75218;SDS011;63801;49.414;19.474;2023-03-01T01:21:41;106.00;;;40.10;;
75218;SDS011;63801;49.414;19.474;2023-03-01T01:23:43;100.17;;;37.63;;
75218;SDS011;63801;49.414;19.474;2023-03-01T01:25:44;89.25;;;35.42;;
75218;SDS011;63801;49.414;19.474;2023-03-01T01:27:45;88.10;;;34.83;;
75218;SDS011;63801;49.414;19.474;2023-03-01T01:29:45;92.35;;;37.03;;
75218;SDS011;63801;49.414;19.474;2023-03-01T01:31:45;104.82;;;38.80;;
75218;SDS011;63801;49.414;19.474;2023-03-01T01:33:46;118.45;;;42.50;;
75218;SDS011;63801;49.414;19.474;2023-03-01T01:35:46;103.45;;;38.50;;
75218;SDS011;63801;49.414;19.474;2023-03-01T01:37:47;99.63;;;38.47;;
75218;SDS011;63801;49.414;19.474;2023-03-01T01:39:47;93.82;;;36.55;;
75218;SDS011;63801;49.414;19.474;2023-03-01T01:41:48;93.80;;;36.13;;
75218;SDS011;63801;49.414;19.474;2023-03-01T01:46:32;58.53;;;23.58;;
75218;SDS011;63801;49.414;19.474;2023-03-01T01:48:39;60.03;;;25.55;;
75218;SDS011;63801;49.414;19.474;2023-03-01T01:50:43;57.67;;;23.33;;
75218;SDS011;63801;49.414;19.474;2023-03-01T01:52:44;57.88;;;22.70;;
75218;SDS011;63801;49.414;19.474;2023-03-01T01:55:02;68.57;;;25.98;;
75218;SDS011;63801;49.414;19.474;2023-03-01T01:57:10;83.53;;;30.67;;
75218;SDS011;63801;49.414;19.474;2023-03-01T01:59:14;80.45;;;32.05;;
75218;SDS011;63801;49.414;19.474;2023-03-01T02:01:15;85.57;;;33.72;;
75218;SDS011;63801;49.414;19.474;2023-03-01T02:03:20;81.93;;;32.28;;
75218;SDS011;63801;49.414;19.474;2023-03-01T02:05:34;86.47;;;32.50;;
75218;SDS011;63801;49.414;19.474;2023-03-01T02:07:48;77.38;;;31.60;;
75218;SDS011;63801;49.414;19.474;2023-03-01T02:09:49;81.18;;;32.88;;
75218;SDS011;63801;49.414;19.474;2023-03-01T02:11:52;88.43;;;33.70;;
75218;SDS011;63801;49.414;19.474;2023-03-01T02:13:53;88.05;;;31.83;;
75218;SDS011;63801;49.414;19.474;2023-03-01T02:15:54;83.15;;;32.13;;
75218;SDS011;63801;49.414;19.474;2023-03-01T02:17:54;85.10;;;33.35;;
75218;SDS011;63801;49.414;19.474;2023-03-01T02:22:02;89.25;;;36.03;;
75218;SDS011;63801;49.414;19.474;2023-03-01T02:24:34;88.93;;;35.50;;
75218;SDS011;63801;49.414;19.474;2023-03-01T02:26:51;91.82;;;35.10;;
75218;SDS011;63801;49.414;19.474;2023-03-01T02:28:54;99.95;;;38.22;;
75218;SDS011;63801;49.414;19.474;2023-03-01T02:30:55;94.05;;;37.40;;
75218;SDS011;63801;49.414;19.474;2023-03-01T02:33:14;96.53;;;39.38;;
75218;SDS011;63801;49.414;19.474;2023-03-01T02:35:15;101.72;;;39.88;;
75218;SDS011;63801;49.414;19.474;2023-03-01T02:37:17;94.32;;;36.85;;
75218;SDS011;63801;49.414;19.474;2023-03-01T02:39:33;98.97;;;37.83;;
75218;SDS011;63801;49.414;19.474;2023-03-01T02:41:42;97.78;;;41.40;;
75218;SDS011;63801;49.414;19.474;2023-03-01T02:43:46;100.63;;;37.90;;
75218;SDS011;63801;49.414;19.474;2023-03-01T02:45:50;102.65;;;36.75;;
75218;SDS011;63801;49.414;19.474;2023-03-01T02:47:56;101.30;;;38.03;;
75218;SDS011;63801;49.414;19.474;2023-03-01T02:49:57;89.45;;;34.35;;
75218;SDS011;63801;49.414;19.474;2023-03-01T02:54:36;72.20;;;31.35;;
75218;SDS011;63801;49.414;19.474;2023-03-01T02:56:43;62.35;;;25.55;;
75218;SDS011;63801;49.414;19.474;2023-03-01T02:58:44;67.68;;;27.77;;
75218;SDS011;63801;49.414;19.474;2023-03-01T03:00:47;67.40;;;27.75;;
75218;SDS011;63801;49.414;19.474;2023-03-01T03:02:49;78.82;;;30.73;;
75218;SDS011;63801;49.414;19.474;2023-03-01T03:04:52;73.63;;;29.55;;
75218;SDS011;63801;49.414;19.474;2023-03-01T03:06:52;65.35;;;27.27;;
75218;SDS011;63801;49.414;19.474;2023-03-01T03:08:52;65.15;;;28.13;;
75218;SDS011;63801;49.414;19.474;2023-03-01T03:10:52;71.93;;;29.27;;
75218;SDS011;63801;49.414;19.474;2023-03-01T03:12:54;75.18;;;28.85;;
75218;SDS011;63801;49.414;19.474;2023-03-01T03:16:56;72.68;;;27.83;;
75218;SDS011;63801;49.414;19.474;2023-03-01T03:18:56;82.25;;;29.90;;
75218;SDS011;63801;49.414;19.474;2023-03-01T03:21:07;80.82;;;28.60;;
75218;SDS011;63801;49.414;19.474;2023-03-01T03:23:12;75.15;;;28.90;;
75218;SDS011;63801;49.414;19.474;2023-03-01T03:25:13;72.00;;;29.50;;
75218;SDS011;63801;49.414;19.474;2023-03-01T03:27:13;72.63;;;27.15;;
75218;SDS011;63801;49.414;19.474;2023-03-01T03:29:13;72.43;;;28.10;;
75218;SDS011;63801;49.414;19.474;2023-03-01T03:31:14;66.20;;;25.00;;
75218;SDS011;63801;49.414;19.474;2023-03-01T03:33:14;55.50;;;23.98;;
75218;SDS011;63801;49.414;19.474;2023-03-01T03:35:14;59.28;;;23.42;;
75218;SDS011;63801;49.414;19.474;2023-03-01T03:37:15;64.72;;;24.10;;
75218;SDS011;63801;49.414;19.474;2023-03-01T03:39:33;56.30;;;22.77;;
75218;SDS011;63801;49.414;19.474;2023-03-01T03:41:34;60.78;;;22.83;;
75218;SDS011;63801;49.414;19.474;2023-03-01T03:43:35;51.05;;;20.65;;
75218;SDS011;63801;49.414;19.474;2023-03-01T03:45:37;50.65;;;18.92;;
75218;SDS011;63801;49.414;19.474;2023-03-01T03:47:38;62.28;;;21.85;;
75218;SDS011;63801;49.414;19.474;2023-03-01T03:49:38;56.40;;;21.88;;
75218;SDS011;63801;49.414;19.474;2023-03-01T03:51:38;61.00;;;23.45;;
75218;SDS011;63801;49.414;19.474;2023-03-01T03:53:39;57.90;;;20.23;;
75218;SDS011;63801;49.414;19.474;2023-03-01T03:55:39;64.45;;;24.02;;
75218;SDS011;63801;49.414;19.474;2023-03-01T03:57:40;52.45;;;19.60;;
75218;SDS011;63801;49.414;19.474;2023-03-01T03:59:41;60.20;;;23.65;;
75218;SDS011;63801;49.414;19.474;2023-03-01T04:01:41;70.18;;;24.60;;
75218;SDS011;63801;49.414;19.474;2023-03-01T04:03:41;62.55;;;23.52;;
75218;SDS011;63801;49.414;19.474;2023-03-01T04:05:46;59.78;;;24.02;;
75218;SDS011;63801;49.414;19.474;2023-03-01T04:07:47;56.03;;;23.45;;
75218;SDS011;63801;49.414;19.474;2023-03-01T04:09:47;66.30;;;24.55;;
75218;SDS011;63801;49.414;19.474;2023-03-01T04:11:47;74.18;;;29.63;;
75218;SDS011;63801;49.414;19.474;2023-03-01T04:13:48;102.15;;;35.53;;
75218;SDS011;63801;49.414;19.474;2023-03-01T04:15:49;94.82;;;36.30;;
75218;SDS011;63801;49.414;19.474;2023-03-01T04:17:51;90.30;;;33.55;;
75218;SDS011;63801;49.414;19.474;2023-03-01T04:19:52;89.15;;;33.67;;
75218;SDS011;63801;49.414;19.474;2023-03-01T04:21:53;79.13;;;31.45;;
75218;SDS011;63801;49.414;19.474;2023-03-01T04:23:53;77.25;;;31.55;;
75218;SDS011;63801;49.414;19.474;2023-03-01T04:25:54;88.82;;;32.25;;
75218;SDS011;63801;49.414;19.474;2023-03-01T04:27:56;83.50;;;30.67;;
75218;SDS011;63801;49.414;19.474;2023-03-01T04:29:57;85.72;;;30.67;;
75218;SDS011;63801;49.414;19.474;2023-03-01T04:31:57;69.90;;;26.52;;
75218;SDS011;63801;49.414;19.474;2023-03-01T04:33:57;60.67;;;24.17;;
75218;SDS011;63801;49.414;19.474;2023-03-01T04:35:58;60.65;;;24.13;;
75218;SDS011;63801;49.414;19.474;2023-03-01T04:37:58;60.30;;;23.35;;
75218;SDS011;63801;49.414;19.474;2023-03-01T04:39:58;67.22;;;25.30;;
75218;SDS011;63801;49.414;19.474;2023-03-01T04:41:59;66.13;;;25.30;;
75218;SDS011;63801;49.414;19.474;2023-03-01T04:43:59;59.05;;;24.17;;
75218;SDS011;63801;49.414;19.474;2023-03-01T04:46:01;67.30;;;23.83;;
75218;SDS011;63801;49.414;19.474;2023-03-01T04:48:03;63.75;;;23.90;;
75218;SDS011;63801;49.414;19.474;2023-03-01T04:50:03;58.58;;;23.75;;
75218;SDS011;63801;49.414;19.474;2023-03-01T04:52:04;62.63;;;24.80;;
75218;SDS011;63801;49.414;19.474;2023-03-01T04:54:05;61.72;;;24.95;;
75218;SDS011;63801;49.414;19.474;2023-03-01T04:56:08;65.75;;;24.77;;
75218;SDS011;63801;49.414;19.474;2023-03-01T04:58:09;62.33;;;24.67;;
75218;SDS011;63801;49.414;19.474;2023-03-01T05:00:10;54.40;;;21.30;;
75218;SDS011;63801;49.414;19.474;2023-03-01T05:02:21;66.50;;;23.67;;
75218;SDS011;63801;49.414;19.474;2023-03-01T05:04:22;58.72;;;23.02;;
75218;SDS011;63801;49.414;19.474;2023-03-01T05:06:23;48.55;;;20.73;;
75218;SDS011;63801;49.414;19.474;2023-03-01T05:08:23;49.55;;;20.42;;
75218;SDS011;63801;49.414;19.474;2023-03-01T05:10:24;48.67;;;20.13;;
75218;SDS011;63801;49.414;19.474;2023-03-01T05:12:28;50.33;;;20.27;;
75218;SDS011;63801;49.414;19.474;2023-03-01T05:14:29;55.92;;;22.27;;
75218;SDS011;63801;49.414;19.474;2023-03-01T05:16:29;56.70;;;21.05;;
75218;SDS011;63801;49.414;19.474;2023-03-01T05:18:31;60.53;;;21.45;;
75218;SDS011;63801;49.414;19.474;2023-03-01T05:20:33;64.53;;;25.42;;
75218;SDS011;63801;49.414;19.474;2023-03-01T05:22:36;84.82;;;32.85;;
75218;SDS011;63801;49.414;19.474;2023-03-01T05:24:37;89.07;;;35.10;;
75218;SDS011;63801;49.414;19.474;2023-03-01T05:26:38;87.35;;;35.05;;
75218;SDS011;63801;49.414;19.474;2023-03-01T05:28:40;103.27;;;37.70;;
75218;SDS011;63801;49.414;19.474;2023-03-01T05:30:40;94.22;;;33.33;;
75218;SDS011;63801;49.414;19.474;2023-03-01T05:32:45;70.78;;;29.00;;
75218;SDS011;63801;49.414;19.474;2023-03-01T05:34:55;61.78;;;27.10;;
75218;SDS011;63801;49.414;19.474;2023-03-01T05:36:55;72.55;;;27.73;;
75218;SDS011;63801;49.414;19.474;2023-03-01T05:38:56;72.30;;;28.00;;
75218;SDS011;63801;49.414;19.474;2023-03-01T05:40:56;73.07;;;29.38;;
75218;SDS011;63801;49.414;19.474;2023-03-01T05:42:57;77.68;;;31.88;;
75218;SDS011;63801;49.414;19.474;2023-03-01T05:44:57;83.63;;;32.45;;
75218;SDS011;63801;49.414;19.474;2023-03-01T05:46:57;79.40;;;31.92;;
75218;SDS011;63801;49.414;19.474;2023-03-01T05:48:58;75.63;;;30.67;;
75218;SDS011;63801;49.414;19.474;2023-03-01T05:50:59;74.68;;;29.35;;
75218;SDS011;63801;49.414;19.474;2023-03-01T05:53:04;71.32;;;29.60;;
75218;SDS011;63801;49.414;19.474;2023-03-01T05:55:11;68.90;;;27.45;;
75218;SDS011;63801;49.414;19.474;2023-03-01T05:57:11;65.25;;;27.55;;
75218;SDS011;63801;49.414;19.474;2023-03-01T05:59:11;64.63;;;28.25;;
75218;SDS011;63801;49.414;19.474;2023-03-01T06:01:12;62.70;;;27.30;;
75218;SDS011;63801;49.414;19.474;2023-03-01T06:03:13;71.40;;;30.40;;
75218;SDS011;63801;49.414;19.474;2023-03-01T06:05:15;69.35;;;31.55;;
75218;SDS011;63801;49.414;19.474;2023-03-01T06:07:16;69.72;;;29.92;;
75218;SDS011;63801;49.414;19.474;2023-03-01T06:09:16;74.45;;;31.13;;
75218;SDS011;63801;49.414;19.474;2023-03-01T06:11:17;64.57;;;28.67;;
75218;SDS011;63801;49.414;19.474;2023-03-01T06:13:17;65.60;;;27.60;;
75218;SDS011;63801;49.414;19.474;2023-03-01T06:15:17;68.25;;;28.02;;
75218;SDS011;63801;49.414;19.474;2023-03-01T06:17:18;66.18;;;28.33;;
75218;SDS011;63801;49.414;19.474;2023-03-01T06:19:18;69.45;;;31.17;;
75218;SDS011;63801;49.414;19.474;2023-03-01T06:21:18;71.50;;;31.13;;
75218;SDS011;63801;49.414;19.474;2023-03-01T06:23:19;62.67;;;28.25;;
75218;SDS011;63801;49.414;19.474;2023-03-01T06:25:21;55.70;;;24.17;;
75218;SDS011;63801;49.414;19.474;2023-03-01T06:27:23;52.53;;;22.17;;
75218;SDS011;63801;49.414;19.474;2023-03-01T06:29:23;54.28;;;23.48;;
75218;SDS011;63801;49.414;19.474;2023-03-01T06:31:24;56.63;;;23.33;;
75218;SDS011;63801;49.414;19.474;2023-03-01T06:33:24;61.97;;;26.38;;
75218;SDS011;63801;49.414;19.474;2023-03-01T06:35:24;61.95;;;26.50;;
75218;SDS011;63801;49.414;19.474;2023-03-01T06:37:29;64.68;;;26.27;;
75218;SDS011;63801;49.414;19.474;2023-03-01T06:39:30;54.97;;;25.83;;
75218;SDS011;63801;49.414;19.474;2023-03-01T06:41:31;57.95;;;24.88;;
75218;SDS011;63801;49.414;19.474;2023-03-01T06:43:33;51.67;;;24.23;;
75218;SDS011;63801;49.414;19.474;2023-03-01T06:45:33;62.13;;;24.67;;
75218;SDS011;63801;49.414;19.474;2023-03-01T06:47:34;56.42;;;24.55;;
75218;SDS011;63801;49.414;19.474;2023-03-01T06:49:34;58.90;;;25.13;;
75218;SDS011;63801;49.414;19.474;2023-03-01T06:51:35;59.95;;;26.08;;
75218;SDS011;63801;49.414;19.474;2023-03-01T06:53:36;68.05;;;27.88;;
75218;SDS011;63801;49.414;19.474;2023-03-01T06:55:37;61.13;;;25.17;;
75218;SDS011;63801;49.414;19.474;2023-03-01T06:57:37;55.35;;;26.27;;
75218;SDS011;63801;49.414;19.474;2023-03-01T06:59:37;56.25;;;27.05;;
75218;SDS011;63801;49.414;19.474;2023-03-01T07:01:38;64.03;;;27.02;;
75218;SDS011;63801;49.414;19.474;2023-03-01T07:03:38;57.55;;;26.00;;
75218;SDS011;63801;49.414;19.474;2023-03-01T07:05:39;63.10;;;26.95;;
75218;SDS011;63801;49.414;19.474;2023-03-01T07:07:39;53.20;;;25.80;;
75218;SDS011;63801;49.414;19.474;2023-03-01T07:09:39;59.92;;;27.77;;
75218;SDS011;63801;49.414;19.474;2023-03-01T07:11:40;61.03;;;27.25;;
75218;SDS011;63801;49.414;19.474;2023-03-01T07:13:40;60.55;;;29.67;;
75218;SDS011;63801;49.414;19.474;2023-03-01T07:15:41;65.40;;;31.05;;
75218;SDS011;63801;49.414;19.474;2023-03-01T07:17:41;71.25;;;35.88;;
75218;SDS011;63801;49.414;19.474;2023-03-01T07:19:44;61.20;;;31.35;;
75218;SDS011;63801;49.414;19.474;2023-03-01T07:21:45;63.22;;;29.52;;
75218;SDS011;63801;49.414;19.474;2023-03-01T07:23:47;66.20;;;32.67;;
75218;SDS011;63801;49.414;19.474;2023-03-01T07:25:52;70.90;;;35.20;;
75218;SDS011;63801;49.414;19.474;2023-03-01T07:27:53;76.35;;;37.53;;
75218;SDS011;63801;49.414;19.474;2023-03-01T07:29:54;69.68;;;38.38;;
75218;SDS011;63801;49.414;19.474;2023-03-01T07:31:54;67.63;;;35.20;;
75218;SDS011;63801;49.414;19.474;2023-03-01T07:33:55;71.72;;;36.63;;
75218;SDS011;63801;49.414;19.474;2023-03-01T07:35:59;73.38;;;36.75;;
75218;SDS011;63801;49.414;19.474;2023-03-01T07:38:00;69.10;;;35.70;;
75218;SDS011;63801;49.414;19.474;2023-03-01T07:40:00;64.40;;;33.30;;
75218;SDS011;63801;49.414;19.474;2023-03-01T07:42:01;65.40;;;34.05;;
75218;SDS011;63801;49.414;19.474;2023-03-01T07:44:01;73.22;;;35.20;;
75218;SDS011;63801;49.414;19.474;2023-03-01T07:46:01;70.43;;;34.53;;
75218;SDS011;63801;49.414;19.474;2023-03-01T07:48:03;76.03;;;35.65;;
75218;SDS011;63801;49.414;19.474;2023-03-01T07:50:03;62.50;;;33.70;;
75218;SDS011;63801;49.414;19.474;2023-03-01T07:52:04;65.50;;;36.80;;
75218;SDS011;63801;49.414;19.474;2023-03-01T07:54:04;69.40;;;36.20;;
75218;SDS011;63801;49.414;19.474;2023-03-01T07:58:07;70.30;;;38.28;;
75218;SDS011;63801;49.414;19.474;2023-03-01T08:00:08;78.35;;;39.92;;
75218;SDS011;63801;49.414;19.474;2023-03-01T08:02:10;71.82;;;38.85;;
75218;SDS011;63801;49.414;19.474;2023-03-01T08:04:11;79.90;;;37.80;;
75218;SDS011;63801;49.414;19.474;2023-03-01T08:06:12;82.03;;;39.13;;
75218;SDS011;63801;49.414;19.474;2023-03-01T08:08:14;72.93;;;39.22;;
75218;SDS011;63801;49.414;19.474;2023-03-01T08:10:14;76.43;;;39.63;;
75218;SDS011;63801;49.414;19.474;2023-03-01T08:12:15;74.88;;;38.38;;
75218;SDS011;63801;49.414;19.474;2023-03-01T08:14:16;78.68;;;39.65;;
75218;SDS011;63801;49.414;19.474;2023-03-01T08:16:20;68.97;;;38.00;;
75218;SDS011;63801;49.414;19.474;2023-03-01T08:18:20;75.85;;;40.70;;
75218;SDS011;63801;49.414;19.474;2023-03-01T08:20:21;74.15;;;41.38;;
75218;SDS011;63801;49.414;19.474;2023-03-01T08:22:21;62.72;;;35.50;;
75218;SDS011;63801;49.414;19.474;2023-03-01T08:24:22;68.50;;;34.97;;
75218;SDS011;63801;49.414;19.474;2023-03-01T08:26:22;64.43;;;35.42;;
75218;SDS011;63801;49.414;19.474;2023-03-01T08:28:23;70.55;;;35.08;;
75218;SDS011;63801;49.414;19.474;2023-03-01T08:30:23;66.80;;;34.47;;
75218;SDS011;63801;49.414;19.474;2023-03-01T08:32:23;63.58;;;33.63;;
75218;SDS011;63801;49.414;19.474;2023-03-01T08:34:24;61.22;;;32.63;;
75218;SDS011;63801;49.414;19.474;2023-03-01T08:36:25;55.92;;;29.63;;
75218;SDS011;63801;49.414;19.474;2023-03-01T08:40:27;51.60;;;28.80;;
75218;SDS011;63801;49.414;19.474;2023-03-01T08:42:28;50.65;;;28.55;;
75218;SDS011;63801;49.414;19.474;2023-03-01T08:44:28;53.08;;;27.77;;
75218;SDS011;63801;49.414;19.474;2023-03-01T08:46:29;56.55;;;28.35;;
75218;SDS011;63801;49.414;19.474;2023-03-01T08:48:32;59.78;;;32.05;;
75218;SDS011;63801;49.414;19.474;2023-03-01T08:50:32;65.20;;;31.42;;
75218;SDS011;63801;49.414;19.474;2023-03-01T08:52:32;65.03;;;35.92;;
75218;SDS011;63801;49.414;19.474;2023-03-01T08:54:33;66.68;;;36.28;;
75218;SDS011;63801;49.414;19.474;2023-03-01T08:56:33;65.95;;;35.03;;
75218;SDS011;63801;49.414;19.474;2023-03-01T08:58:33;60.35;;;33.78;;
75218;SDS011;63801;49.414;19.474;2023-03-01T09:00:34;58.45;;;30.33;;
75218;SDS011;63801;49.414;19.474;2023-03-01T09:02:34;63.47;;;34.35;;
75218;SDS011;63801;49.414;19.474;2023-03-01T09:04:35;53.25;;;28.75;;
75218;SDS011;63801;49.414;19.474;2023-03-01T09:06:35;71.63;;;38.42;;
75218;SDS011;63801;49.414;19.474;2023-03-01T09:08:40;54.55;;;30.25;;
75218;SDS011;63801;49.414;19.474;2023-03-01T09:10:42;50.22;;;27.38;;
75218;SDS011;63801;49.414;19.474;2023-03-01T09:12:43;54.25;;;27.65;;
75218;SDS011;63801;49.414;19.474;2023-03-01T09:14:43;44.25;;;26.70;;
75218;SDS011;63801;49.414;19.474;2023-03-01T09:16:44;55.35;;;29.00;;
75218;SDS011;63801;49.414;19.474;2023-03-01T09:18:45;53.28;;;27.33;;
75218;SDS011;63801;49.414;19.474;2023-03-01T09:20:48;63.55;;;29.40;;
75218;SDS011;63801;49.414;19.474;2023-03-01T09:22:49;54.72;;;27.67;;
75218;SDS011;63801;49.414;19.474;2023-03-01T09:24:49;54.38;;;27.33;;
75218;SDS011;63801;49.414;19.474;2023-03-01T09:26:49;48.55;;;24.75;;
75218;SDS011;63801;49.414;19.474;2023-03-01T09:28:54;51.60;;;25.80;;
75218;SDS011;63801;49.414;19.474;2023-03-01T09:30:59;48.10;;;26.45;;
75218;SDS011;63801;49.414;19.474;2023-03-01T09:33:01;52.97;;;26.08;;
75218;SDS011;63801;49.414;19.474;2023-03-01T09:35:01;55.55;;;29.13;;
75218;SDS011;63801;49.414;19.474;2023-03-01T09:37:04;50.85;;;26.52;;
75218;SDS011;63801;49.414;19.474;2023-03-01T09:39:05;48.25;;;24.15;;
75218;SDS011;63801;49.414;19.474;2023-03-01T09:41:09;48.78;;;25.55;;
75218;SDS011;63801;49.414;19.474;2023-03-01T09:46:11;56.08;;;28.40;;
75218;SDS011;63801;49.414;19.474;2023-03-01T09:48:16;51.83;;;28.25;;
75218;SDS011;63801;49.414;19.474;2023-03-01T09:50:22;59.78;;;29.30;;
75218;SDS011;63801;49.414;19.474;2023-03-01T09:52:32;51.05;;;28.00;;
75218;SDS011;63801;49.414;19.474;2023-03-01T09:54:38;52.08;;;25.42;;
75218;SDS011;63801;49.414;19.474;2023-03-01T10:06:42;47.08;;;24.10;;
75218;SDS011;63801;49.414;19.474;2023-03-01T10:08:56;32.67;;;17.77;;
75218;SDS011;63801;49.414;19.474;2023-03-01T10:11:00;21.00;;;12.82;;
75218;SDS011;63801;49.414;19.474;2023-03-01T10:13:10;34.95;;;18.38;;
75218;SDS011;63801;49.414;19.474;2023-03-01T10:15:41;39.38;;;21.15;;
75218;SDS011;63801;49.414;19.474;2023-03-01T10:17:55;36.70;;;18.15;;
75218;SDS011;63801;49.414;19.474;2023-03-01T10:20:13;50.20;;;23.75;;
75218;SDS011;63801;49.414;19.474;2023-03-01T10:22:24;42.63;;;23.02;;
75218;SDS011;63801;49.414;19.474;2023-03-01T10:24:31;53.17;;;28.50;;
75218;SDS011;63801;49.414;19.474;2023-03-01T10:26:48;57.08;;;32.60;;
75218;SDS011;63801;49.414;19.474;2023-03-01T10:29:02;40.03;;;21.00;;
75218;SDS011;63801;49.414;19.474;2023-03-01T10:31:04;52.78;;;28.42;;
75218;SDS011;63801;49.414;19.474;2023-03-01T10:33:20;34.50;;;17.23;;
75218;SDS011;63801;49.414;19.474;2023-03-01T10:35:28;42.65;;;20.48;;
75218;SDS011;63801;49.414;19.474;2023-03-01T10:37:32;37.47;;;18.73;;
75218;SDS011;63801;49.414;19.474;2023-03-01T10:41:33;32.50;;;15.67;;
75218;SDS011;63801;49.414;19.474;2023-03-01T10:44:08;29.17;;;15.60;;
75218;SDS011;63801;49.414;19.474;2023-03-01T10:46:00;29.50;;;14.60;;
75218;SDS011;63801;49.414;19.474;2023-03-01T10:48:14;27.98;;;13.48;;
75218;SDS011;63801;49.414;19.474;2023-03-01T10:50:20;25.70;;;13.20;;
75218;SDS011;63801;49.414;19.474;2023-03-01T10:54:30;62.28;;;31.35;;
75218;SDS011;63801;49.414;19.474;2023-03-01T10:56:45;34.67;;;16.92;;
75218;SDS011;63801;49.414;19.474;2023-03-01T10:59:00;37.67;;;20.77;;
75218;SDS011;63801;49.414;19.474;2023-03-01T11:01:05;54.10;;;28.83;;
75218;SDS011;63801;49.414;19.474;2023-03-01T11:03:24;52.72;;;25.88;;
75218;SDS011;63801;49.414;19.474;2023-03-01T11:05:35;52.42;;;24.45;;
75218;SDS011;63801;49.414;19.474;2023-03-01T11:07:46;27.67;;;12.50;;
75218;SDS011;63801;49.414;19.474;2023-03-01T11:09:48;25.55;;;13.38;;
75218;SDS011;63801;49.414;19.474;2023-03-01T11:11:52;30.77;;;14.00;;
75218;SDS011;63801;49.414;19.474;2023-03-01T11:13:54;43.05;;;20.40;;
75218;SDS011;63801;49.414;19.474;2023-03-01T11:16:00;31.17;;;14.93;;
75218;SDS011;63801;49.414;19.474;2023-03-01T11:18:03;27.15;;;14.63;;
75218;SDS011;63801;49.414;19.474;2023-03-01T11:22:19;29.33;;;13.68;;
75218;SDS011;63801;49.414;19.474;2023-03-01T11:24:27;27.95;;;14.90;;
75218;SDS011;63801;49.414;19.474;2023-03-01T11:26:53;45.45;;;22.25;;
75218;SDS011;63801;49.414;19.474;2023-03-01T11:28:55;39.67;;;18.48;;
75218;SDS011;63801;49.414;19.474;2023-03-01T11:31:04;31.58;;;15.77;;
75218;SDS011;63801;49.414;19.474;2023-03-01T11:35:22;30.48;;;15.63;;
75218;SDS011;63801;49.414;19.474;2023-03-01T11:37:43;32.92;;;17.23;;
75218;SDS011;63801;49.414;19.474;2023-03-01T11:40:03;43.40;;;19.35;;
75218;SDS011;63801;49.414;19.474;2023-03-01T11:42:15;24.52;;;12.27;;
75218;SDS011;63801;49.414;19.474;2023-03-01T11:44:21;49.33;;;18.42;;
75218;SDS011;63801;49.414;19.474;2023-03-01T11:48:34;18.65;;;8.18;;
75218;SDS011;63801;49.414;19.474;2023-03-01T11:52:48;23.85;;;10.48;;
75218;SDS011;63801;49.414;19.474;2023-03-01T12:07:00;30.67;;;14.18;;
75218;SDS011;63801;49.414;19.474;2023-03-01T12:11:41;45.78;;;22.15;;
75218;SDS011;63801;49.414;19.474;2023-03-01T12:16:17;25.88;;;14.02;;
75218;SDS011;63801;49.414;19.474;2023-03-01T12:23:16;23.85;;;10.45;;
75218;SDS011;63801;49.414;19.474;2023-03-01T12:32:28;33.50;;;17.45;;
75218;SDS011;63801;49.414;19.474;2023-03-01T12:37:09;22.85;;;11.10;;
75218;SDS011;63801;49.414;19.474;2023-03-01T12:42:04;24.85;;;10.52;;
75218;SDS011;63801;49.414;19.474;2023-03-01T12:44:47;78.10;;;52.75;;
75218;SDS011;63801;49.414;19.474;2023-03-01T12:49:10;31.95;;;16.13;;
75218;SDS011;63801;49.414;19.474;2023-03-01T12:51:31;25.73;;;11.75;;
75218;SDS011;63801;49.414;19.474;2023-03-01T12:53:36;25.10;;;11.55;;
75218;SDS011;63801;49.414;19.474;2023-03-01T12:55:42;25.90;;;12.80;;
75218;SDS011;63801;49.414;19.474;2023-03-01T12:57:46;20.02;;;10.15;;
75218;SDS011;63801;49.414;19.474;2023-03-01T13:00:12;21.00;;;10.82;;
75218;SDS011;63801;49.414;19.474;2023-03-01T13:02:21;24.23;;;10.73;;
75218;SDS011;63801;49.414;19.474;2023-03-01T13:04:38;30.05;;;14.40;;
75218;SDS011;63801;49.414;19.474;2023-03-01T13:06:55;24.17;;;11.50;;
75218;SDS011;63801;49.414;19.474;2023-03-01T13:09:07;30.25;;;14.63;;